createdAt,value
2022-09-10T00:01:33.292Z,96.10
2022-09-10T00:03:38.239Z,96.00
2022-09-10T00:05:43.836Z,96.00
2022-09-10T00:07:48.238Z,96.10
2022-09-10T00:09:52.916Z,96.30
2022-09-10T00:11:57.472Z,96.20
2022-09-10T00:14:05.000Z,96.00
2022-09-10T00:16:11.795Z,95.90
2022-09-10T00:18:18.107Z,95.90
2022-09-10T00:20:22.353Z,96.00
2022-09-10T00:22:26.890Z,96.10
2022-09-10T00:24:31.296Z,96.10
2022-09-10T00:26:39.493Z,96.50
2022-09-10T00:28:45.093Z,96.60
2022-09-10T00:30:53.279Z,96.70
2022-09-10T00:32:57.742Z,96.70
2022-09-10T00:35:02.115Z,97.00
2022-09-10T00:37:07.463Z,97.50
2022-09-10T00:39:14.685Z,98.10
2022-09-10T00:41:20.348Z,98.10
2022-09-10T00:43:25.181Z,98.80
2022-09-10T00:45:31.594Z,99.30
2022-09-10T00:47:41.034Z,99.20
2022-09-10T00:49:48.089Z,99.90
2022-09-10T00:51:55.103Z,99.90
2022-09-10T00:54:00.618Z,99.90
2022-09-10T00:56:06.046Z,99.90
2022-09-10T00:58:13.261Z,99.90
2022-09-10T01:00:18.555Z,99.90
2022-09-10T01:02:23.075Z,99.90
2022-09-10T01:04:29.893Z,99.90
2022-09-10T01:06:34.266Z,99.90
2022-09-10T01:08:38.646Z,99.90
2022-09-10T01:10:51.987Z,99.90
2022-09-10T01:13:13.925Z,99.90
2022-09-10T01:15:28.000Z,99.90
2022-09-10T01:17:40.438Z,99.90
2022-09-10T01:20:17.309Z,99.90
2022-09-10T01:22:30.728Z,99.90
2022-09-10T01:24:54.964Z,99.90
2022-09-10T01:27:32.374Z,99.90
2022-09-10T01:29:43.452Z,99.90
2022-09-10T01:31:53.320Z,99.90
2022-09-10T01:34:04.156Z,99.90
2022-09-10T01:36:14.289Z,99.90
2022-09-10T01:38:23.159Z,99.90
2022-09-10T01:40:31.356Z,99.90
2022-09-10T01:42:43.140Z,99.90
2022-09-10T01:44:50.428Z,99.90
2022-09-10T01:47:14.839Z,99.90
2022-09-10T01:49:31.091Z,99.90
2022-09-10T01:51:53.262Z,99.90
2022-09-10T01:54:11.668Z,99.90
2022-09-10T01:56:27.866Z,99.90
2022-09-10T01:58:37.169Z,99.90
2022-09-10T02:00:55.515Z,99.90
2022-09-10T02:03:03.035Z,99.90
2022-09-10T02:05:11.382Z,99.90
2022-09-10T02:07:17.202Z,99.90
2022-09-10T02:09:21.806Z,99.90
2022-09-10T02:11:26.220Z,99.90
2022-09-10T02:13:32.164Z,99.90
2022-09-10T02:15:56.805Z,99.90
2022-09-10T02:18:03.650Z,99.90
2022-09-10T02:20:13.708Z,99.90
2022-09-10T02:22:18.170Z,99.90
2022-09-10T02:24:22.843Z,99.90
2022-09-10T02:26:27.831Z,99.90
2022-09-10T02:28:32.667Z,99.90
2022-09-10T02:30:37.422Z,99.90
2022-09-10T02:32:43.174Z,99.90
2022-09-10T02:34:50.122Z,99.90
2022-09-10T02:36:54.660Z,99.90
2022-09-10T02:38:59.074Z,99.90
2022-09-10T02:41:04.598Z,99.90
2022-09-10T02:43:09.483Z,99.90
2022-09-10T02:45:16.898Z,99.90
2022-09-10T02:47:21.266Z,99.90
2022-09-10T02:49:28.382Z,99.90
2022-09-10T02:51:33.281Z,99.90
2022-09-10T02:53:37.992Z,99.90
2022-09-10T02:55:46.513Z,99.90
2022-09-10T02:57:51.304Z,99.90
2022-09-10T02:59:56.926Z,99.90
2022-09-10T03:02:02.074Z,99.90
2022-09-10T03:04:06.432Z,99.90
2022-09-10T03:06:13.003Z,99.90
2022-09-10T03:08:19.321Z,99.90
2022-09-10T03:10:25.518Z,99.90
2022-09-10T03:12:29.883Z,99.90
2022-09-10T03:14:34.247Z,99.90
2022-09-10T03:16:40.247Z,99.90
2022-09-10T03:18:45.490Z,99.90
2022-09-10T03:20:49.827Z,99.90
2022-09-10T03:22:55.713Z,99.90
2022-09-10T03:24:59.911Z,99.90
2022-09-10T03:27:04.410Z,99.90
2022-09-10T03:29:08.772Z,99.90
2022-09-10T03:31:16.700Z,99.90
2022-09-10T03:33:24.531Z,99.90
2022-09-10T03:35:32.254Z,99.90
2022-09-10T03:37:38.646Z,99.90
2022-09-10T03:39:44.794Z,99.90
2022-09-10T03:41:49.253Z,99.90
2022-09-10T03:43:53.606Z,99.90
2022-09-10T03:45:58.302Z,99.90
2022-09-10T03:48:03.215Z,99.90
2022-09-10T03:50:08.786Z,99.90
2022-09-10T03:52:14.053Z,99.90
2022-09-10T03:54:20.995Z,99.90
2022-09-10T03:56:27.111Z,99.90
2022-09-10T03:58:32.486Z,99.90
2022-09-10T04:00:37.856Z,99.90
2022-09-10T04:02:44.196Z,99.90
2022-09-10T04:04:50.196Z,99.90
2022-09-10T04:06:54.679Z,99.90
2022-09-10T04:09:01.416Z,99.90
2022-09-10T04:11:06.964Z,99.90
2022-09-10T04:13:12.830Z,99.90
2022-09-10T04:15:17.435Z,99.90
2022-09-10T04:17:22.155Z,99.90
2022-09-10T04:19:27.928Z,99.90
2022-09-10T04:21:33.091Z,99.90
2022-09-10T04:23:38.036Z,99.90
2022-09-10T04:25:43.963Z,99.90
2022-09-10T04:27:49.833Z,99.90
2022-09-10T04:29:55.609Z,99.90
2022-09-10T04:32:00.168Z,99.90
2022-09-10T04:34:07.997Z,99.90
2022-09-10T04:36:13.031Z,99.90
2022-09-10T04:38:18.924Z,99.90
2022-09-10T04:40:23.701Z,99.90
2022-09-10T04:42:28.493Z,99.90
2022-09-10T04:44:33.995Z,99.90
2022-09-10T04:46:42.009Z,99.90
2022-09-10T04:48:48.826Z,99.90
2022-09-10T04:51:15.260Z,99.90
2022-09-10T04:53:22.228Z,99.90
2022-09-10T04:55:27.852Z,99.90
2022-09-10T04:57:32.721Z,99.90
2022-09-10T04:59:38.158Z,99.90
2022-09-10T05:01:43.903Z,99.90
2022-09-10T05:03:48.316Z,99.90
2022-09-10T05:05:52.806Z,99.90
2022-09-10T05:07:57.140Z,99.90
2022-09-10T05:10:01.433Z,99.90
2022-09-10T05:12:07.817Z,99.90
2022-09-10T05:14:12.185Z,99.90
2022-09-10T05:16:16.778Z,99.90
2022-09-10T05:18:22.633Z,99.90
2022-09-10T05:20:27.878Z,99.90
2022-09-10T05:22:38.499Z,99.90
2022-09-10T05:24:44.726Z,99.90
2022-09-10T05:26:49.122Z,99.90
2022-09-10T05:28:55.103Z,99.90
2022-09-10T05:30:59.527Z,99.90
2022-09-10T05:33:06.001Z,99.90
2022-09-10T05:35:14.388Z,99.90
2022-09-10T05:37:22.337Z,99.90
2022-09-10T05:39:26.649Z,99.90
2022-09-10T05:41:31.273Z,99.90
2022-09-10T05:43:37.177Z,99.90
2022-09-10T05:45:41.440Z,99.90
2022-09-10T05:47:45.861Z,99.90
2022-09-10T05:49:55.394Z,99.90
2022-09-10T05:52:02.541Z,99.90
2022-09-10T05:54:08.359Z,99.90
2022-09-10T05:56:13.457Z,99.90
2022-09-10T05:58:19.652Z,99.90
2022-09-10T06:00:25.002Z,99.90
2022-09-10T06:02:36.514Z,99.90
2022-09-10T06:04:41.649Z,99.90
2022-09-10T06:06:47.971Z,99.90
2022-09-10T06:08:55.014Z,99.90
2022-09-10T06:11:10.706Z,99.90
2022-09-10T06:13:22.135Z,99.90
2022-09-10T06:15:27.461Z,99.90
2022-09-10T06:17:31.980Z,99.90
2022-09-10T06:19:36.812Z,99.90
2022-09-10T06:21:41.589Z,99.40
2022-09-10T06:23:47.048Z,99.30
2022-09-10T06:26:04.379Z,98.80
2022-09-10T06:28:10.511Z,98.20
2022-09-10T06:30:15.630Z,97.30
2022-09-10T06:32:24.166Z,97.40
2022-09-10T06:34:28.775Z,97.00
2022-09-10T06:36:34.026Z,96.60
2022-09-10T06:38:39.163Z,96.60
2022-09-10T06:40:54.579Z,96.60
2022-09-10T06:43:02.733Z,96.60
2022-09-10T06:45:40.276Z,96.30
2022-09-10T06:48:38.374Z,95.80
2022-09-10T06:50:31.868Z,96.10
2022-09-10T06:52:37.743Z,95.90
2022-09-10T06:54:44.834Z,94.60
2022-09-10T06:57:01.451Z,94.40
2022-09-10T06:59:09.235Z,93.50
2022-09-10T07:01:22.915Z,92.80
2022-09-10T07:03:31.346Z,92.30
2022-09-10T07:05:35.676Z,92.30
2022-09-10T07:07:41.001Z,92.60
2022-09-10T07:09:45.829Z,92.40
2022-09-10T07:11:53.260Z,91.80
2022-09-10T07:13:57.673Z,91.90
2022-09-10T07:16:08.680Z,92.80
2022-09-10T07:18:14.851Z,93.00
2022-09-10T07:20:19.696Z,93.50
2022-09-10T07:22:25.263Z,94.10
2022-09-10T07:24:29.397Z,94.20
2022-09-10T07:26:38.792Z,94.60
2022-09-10T07:28:43.801Z,94.90
2022-09-10T07:30:49.075Z,95.20
2022-09-10T07:32:55.782Z,95.10
2022-09-10T07:35:04.224Z,94.40
2022-09-10T07:37:08.324Z,93.70
2022-09-10T07:39:12.596Z,92.90
2022-09-10T07:41:18.722Z,93.20
2022-09-10T07:43:24.913Z,93.00
2022-09-10T07:45:32.019Z,93.00
2022-09-10T07:47:41.060Z,92.70
2022-09-10T07:49:46.850Z,92.50
2022-09-10T07:51:57.604Z,92.10
2022-09-10T07:54:06.160Z,92.70
2022-09-10T07:56:15.242Z,92.90
2022-09-10T07:58:19.370Z,92.70
2022-09-10T08:00:23.553Z,92.60
2022-09-10T08:02:33.140Z,92.20
2022-09-10T08:04:40.601Z,92.30
2022-09-10T08:06:51.333Z,92.20
2022-09-10T08:08:55.683Z,92.10
2022-09-10T08:11:11.210Z,92.20
2022-09-10T08:13:18.328Z,91.60
2022-09-10T08:15:23.502Z,90.60
2022-09-10T08:17:30.018Z,90.20
2022-09-10T08:19:34.498Z,90.50
2022-09-10T08:21:40.623Z,90.20
2022-09-10T08:23:51.073Z,90.50
2022-09-10T08:25:57.215Z,90.60
2022-09-10T08:28:02.732Z,89.10
2022-09-10T08:30:09.971Z,87.60
2022-09-10T08:32:15.483Z,87.20
2022-09-10T08:34:20.247Z,86.60
2022-09-10T08:36:30.559Z,87.10
2022-09-10T08:38:36.876Z,85.60
2022-09-10T08:40:44.804Z,84.80
2022-09-10T08:42:50.992Z,83.00
2022-09-10T08:45:04.405Z,83.40
2022-09-10T08:47:21.808Z,82.90
2022-09-10T08:49:35.337Z,83.40
2022-09-10T08:51:45.519Z,83.50
2022-09-10T08:53:59.975Z,83.70
2022-09-10T08:56:12.941Z,82.90
2022-09-10T08:58:22.361Z,82.70
2022-09-10T09:00:29.998Z,82.20
2022-09-10T09:02:49.349Z,81.80
2022-09-10T09:05:02.726Z,81.20
2022-09-10T09:07:15.424Z,81.40
2022-09-10T09:09:22.178Z,81.50
2022-09-10T09:11:37.319Z,81.60
2022-09-10T09:14:12.936Z,80.90
2022-09-10T09:16:34.992Z,82.00
2022-09-10T09:18:55.246Z,82.80
2022-09-10T09:21:07.055Z,81.70
2022-09-10T09:23:21.701Z,82.30
2022-09-10T09:25:34.838Z,81.90
2022-09-10T09:27:42.725Z,81.40
2022-09-10T09:29:53.280Z,80.90
2022-09-10T09:32:00.962Z,81.90
2022-09-10T09:34:13.189Z,81.90
2022-09-10T09:36:20.876Z,82.10
2022-09-10T09:38:28.034Z,82.50
2022-09-10T09:40:44.977Z,82.20
2022-09-10T09:42:56.208Z,81.20
2022-09-10T09:45:17.071Z,80.40
2022-09-10T09:47:21.328Z,80.50
2022-09-10T09:49:26.715Z,80.40
2022-09-10T09:51:35.590Z,80.80
2022-09-10T09:53:42.333Z,80.00
2022-09-10T09:55:53.797Z,80.40
2022-09-10T09:58:30.814Z,79.90
2022-09-10T10:00:37.872Z,80.20
2022-09-10T10:02:41.975Z,79.70
2022-09-10T10:04:56.916Z,79.60
2022-09-10T10:07:02.703Z,78.90
2022-09-10T10:09:08.364Z,78.90
2022-09-10T10:11:22.953Z,78.60
2022-09-10T10:13:38.440Z,78.50
2022-09-10T10:15:43.162Z,77.40
2022-09-10T10:17:47.567Z,77.40
2022-09-10T10:20:00.246Z,77.80
2022-09-10T10:22:25.686Z,77.10
2022-09-10T10:24:35.033Z,77.20
2022-09-10T10:26:40.982Z,77.10
2022-09-10T10:28:49.720Z,77.30
2022-09-10T10:30:56.212Z,76.80
2022-09-10T10:33:01.875Z,76.10
2022-09-10T10:35:27.106Z,75.10
2022-09-10T10:37:39.480Z,75.60
2022-09-10T10:40:07.431Z,75.30
2022-09-10T10:42:19.420Z,75.70
2022-09-10T10:44:40.744Z,76.60
2022-09-10T10:46:54.961Z,74.90
2022-09-10T10:49:10.609Z,74.10
2022-09-10T10:51:22.818Z,74.20
2022-09-10T10:53:39.175Z,74.60
2022-09-10T10:55:48.339Z,74.80
2022-09-10T10:58:10.593Z,73.90
2022-09-10T11:00:18.983Z,73.40
2022-09-10T11:02:31.113Z,74.10
2022-09-10T11:04:43.452Z,75.10
2022-09-10T11:06:53.633Z,74.20
2022-09-10T11:09:03.048Z,72.50
2022-09-10T11:11:10.453Z,73.60
2022-09-10T11:13:20.289Z,74.10
2022-09-10T11:15:33.359Z,74.80
2022-09-10T11:17:43.218Z,74.70
2022-09-10T11:20:17.163Z,74.10
2022-09-10T11:22:24.233Z,73.40
2022-09-10T11:24:31.376Z,73.10
2022-09-10T11:26:38.973Z,72.80
2022-09-10T11:28:56.329Z,72.30
2022-09-10T11:31:07.791Z,72.80
2022-09-10T11:33:18.962Z,72.70
2022-09-10T11:35:27.520Z,72.60
2022-09-10T11:37:45.206Z,73.20
2022-09-10T11:39:53.625Z,73.10
2022-09-10T11:42:00.744Z,73.70
2022-09-10T11:44:16.399Z,73.80
2022-09-10T11:46:26.136Z,73.10
2022-09-10T11:48:35.322Z,72.30
2022-09-10T11:50:45.752Z,72.20
2022-09-10T11:52:50.662Z,72.50
2022-09-10T11:54:55.875Z,74.00
2022-09-10T11:57:06.905Z,74.40
2022-09-10T11:59:24.505Z,73.90
2022-09-10T12:01:49.197Z,74.60
2022-09-10T12:04:30.898Z,74.10
2022-09-10T12:06:44.575Z,74.70
2022-09-10T12:09:01.004Z,74.00
2022-09-10T12:11:14.048Z,74.10
2022-09-10T12:13:18.610Z,75.10
2022-09-10T12:15:24.446Z,74.90
2022-09-10T12:17:33.795Z,73.60
2022-09-10T12:19:41.695Z,73.30
2022-09-10T12:21:51.222Z,73.80
2022-09-10T12:23:55.651Z,74.90
2022-09-10T12:26:01.428Z,74.50
2022-09-10T12:28:08.169Z,74.10
2022-09-10T12:31:01.056Z,73.80
2022-09-10T12:33:54.271Z,74.90
2022-09-10T12:35:58.560Z,75.30
2022-09-10T12:38:40.145Z,75.00
2022-09-10T12:40:49.640Z,73.60
2022-09-10T12:42:59.043Z,74.40
2022-09-10T12:45:03.440Z,75.10
2022-09-10T12:47:40.191Z,75.40
2022-09-10T12:49:49.774Z,74.80
2022-09-10T12:51:57.937Z,73.80
2022-09-10T12:54:26.048Z,73.70
2022-09-10T12:56:59.769Z,74.10
2022-09-10T12:59:20.274Z,74.00
2022-09-10T13:01:39.492Z,73.90
2022-09-10T13:03:54.822Z,74.50
2022-09-10T13:06:04.293Z,75.20
2022-09-10T13:08:21.385Z,75.70
2022-09-10T13:10:28.923Z,75.50
2022-09-10T13:12:37.776Z,74.30
2022-09-10T13:14:48.365Z,74.50
2022-09-10T13:16:52.917Z,74.30
2022-09-10T13:19:36.095Z,73.90
2022-09-10T13:21:54.982Z,75.20
2022-09-10T13:23:59.264Z,74.70
2022-09-10T13:26:38.529Z,74.40
2022-09-10T13:29:11.396Z,74.20
2022-09-10T13:31:22.496Z,73.90
2022-09-10T13:33:30.307Z,74.70
2022-09-10T13:36:02.166Z,74.30
2022-09-10T13:38:33.721Z,74.10
2022-09-10T13:41:03.277Z,74.70
2022-09-10T13:43:38.421Z,74.40
2022-09-10T13:45:48.433Z,75.00
2022-09-10T13:48:01.087Z,74.60
2022-09-10T13:50:14.506Z,75.00
2022-09-10T13:52:23.088Z,75.10
2022-09-10T13:54:35.772Z,75.40
2022-09-10T13:56:45.095Z,75.30
2022-09-10T13:58:51.780Z,74.30
2022-09-10T14:00:57.921Z,74.80
2022-09-10T14:03:02.759Z,74.70
2022-09-10T14:05:28.415Z,75.10
2022-09-10T14:07:32.922Z,77.30
2022-09-10T14:09:42.140Z,76.90
2022-09-10T14:11:47.018Z,76.50
2022-09-10T14:13:55.644Z,76.10
2022-09-10T14:16:02.606Z,75.50
2022-09-10T14:18:07.430Z,75.80
2022-09-10T14:20:20.085Z,76.10
2022-09-10T14:22:26.021Z,75.70
2022-09-10T14:24:33.783Z,76.20
2022-09-10T14:26:40.744Z,76.40
2022-09-10T14:28:53.057Z,75.70
2022-09-10T14:31:22.454Z,76.40
2022-09-10T14:33:33.676Z,76.50
2022-09-10T14:35:43.039Z,77.70
2022-09-10T14:37:47.572Z,77.10
2022-09-10T14:39:52.156Z,77.10
2022-09-10T14:42:27.352Z,76.70
2022-09-10T14:44:31.843Z,76.40
2022-09-10T14:46:51.454Z,76.80
2022-09-10T14:49:09.774Z,77.00
2022-09-10T14:51:17.755Z,77.10
2022-09-10T14:53:22.679Z,77.60
2022-09-10T14:55:28.411Z,78.70
2022-09-10T14:57:35.451Z,80.10
2022-09-10T14:59:42.117Z,80.70
2022-09-10T15:01:48.435Z,81.00
2022-09-10T15:03:52.892Z,82.00
2022-09-10T15:05:57.219Z,81.90
2022-09-10T15:08:01.390Z,82.20
2022-09-10T15:10:06.146Z,82.50
2022-09-10T15:12:15.221Z,83.00
2022-09-10T15:14:21.099Z,82.40
2022-09-10T15:16:25.465Z,82.00
2022-09-10T15:18:29.864Z,83.00
2022-09-10T15:20:34.030Z,83.40
2022-09-10T15:22:38.215Z,83.40
2022-09-10T15:25:05.508Z,83.70
2022-09-10T15:27:08.760Z,84.00
2022-09-10T15:29:14.467Z,84.60
2022-09-10T15:31:20.325Z,84.70
2022-09-10T15:33:24.765Z,84.80
2022-09-10T15:35:29.021Z,85.10
2022-09-10T15:37:33.317Z,85.00
2022-09-10T15:39:38.893Z,84.70
2022-09-10T15:41:44.575Z,84.20
2022-09-10T15:43:49.615Z,84.20
2022-09-10T15:45:53.826Z,84.50
2022-09-10T15:47:59.631Z,84.70
2022-09-10T15:50:04.860Z,84.90
2022-09-10T15:52:10.055Z,84.70
2022-09-10T15:54:14.808Z,84.90
2022-09-10T15:56:20.035Z,85.10
2022-09-10T15:58:25.867Z,85.10
2022-09-10T16:00:30.417Z,86.20
2022-09-10T16:02:34.982Z,86.20
2022-09-10T16:04:43.037Z,87.10
2022-09-10T16:06:47.584Z,87.60
2022-09-10T16:08:53.135Z,88.00
2022-09-10T16:10:57.335Z,88.60
2022-09-10T16:13:01.757Z,89.10
2022-09-10T16:15:06.672Z,90.00
2022-09-10T16:17:11.825Z,90.40
2022-09-10T16:19:16.361Z,91.10
2022-09-10T16:21:26.182Z,91.20
2022-09-10T16:23:30.424Z,91.50
2022-09-10T16:25:34.748Z,91.70
2022-09-10T16:27:43.012Z,91.50
2022-09-10T16:29:48.763Z,91.60
2022-09-10T16:31:53.686Z,91.70
2022-09-10T16:34:00.081Z,92.70
2022-09-10T16:36:05.916Z,93.80
2022-09-10T16:38:12.863Z,94.50
2022-09-10T16:40:19.408Z,94.90
2022-09-10T16:42:24.190Z,94.90
2022-09-10T16:44:28.892Z,95.20
2022-09-10T16:46:33.523Z,95.20
2022-09-10T16:48:39.963Z,95.50
2022-09-10T16:50:44.224Z,95.50
2022-09-10T16:52:49.345Z,95.80
2022-09-10T16:54:57.618Z,96.80
2022-09-10T16:57:02.205Z,97.60
2022-09-10T16:59:07.842Z,97.80
2022-09-10T17:01:12.043Z,97.60
2022-09-10T17:03:16.317Z,98.10
2022-09-10T17:05:20.829Z,98.50
2022-09-10T17:07:25.278Z,99.40
2022-09-10T17:09:29.407Z,99.60
2022-09-10T17:11:35.800Z,99.60
2022-09-10T17:13:40.211Z,99.90
2022-09-10T17:15:44.684Z,99.90
2022-09-10T17:17:49.391Z,99.90
2022-09-10T17:19:53.525Z,99.90
2022-09-10T17:21:57.942Z,99.90
2022-09-10T17:24:03.229Z,99.90
2022-09-10T17:26:08.766Z,99.90
2022-09-10T17:28:14.271Z,99.90
2022-09-10T17:30:18.631Z,99.90
2022-09-10T17:32:22.716Z,99.90
2022-09-10T17:34:28.202Z,99.90
2022-09-10T17:36:33.210Z,99.90
2022-09-10T17:38:37.942Z,99.90
2022-09-10T17:40:42.348Z,99.90
2022-09-10T17:42:46.617Z,99.90
2022-09-10T17:44:52.495Z,99.80
2022-09-10T17:46:56.634Z,99.50
2022-09-10T17:49:01.263Z,99.90
2022-09-10T17:51:07.322Z,99.90
2022-09-10T17:53:12.136Z,99.90
2022-09-10T17:55:16.310Z,99.90
2022-09-10T17:57:20.736Z,99.90
2022-09-10T17:59:25.400Z,99.90
2022-09-10T18:01:32.508Z,99.90
2022-09-10T18:03:38.294Z,99.80
2022-09-10T18:05:43.397Z,99.90
2022-09-10T18:07:47.916Z,99.90
2022-09-10T18:09:52.155Z,99.90
2022-09-10T18:11:56.861Z,99.90
2022-09-10T18:14:01.795Z,99.90
2022-09-10T18:16:07.491Z,99.90
2022-09-10T18:18:14.007Z,99.90
2022-09-10T18:20:18.347Z,99.90
2022-09-10T18:22:23.495Z,99.90
2022-09-10T18:24:28.272Z,99.90
2022-09-10T18:26:36.579Z,99.90
2022-09-10T18:28:41.034Z,99.90
2022-09-10T18:30:45.751Z,99.90
2022-09-10T18:32:54.951Z,99.90
2022-09-10T18:35:00.571Z,99.90
2022-09-10T18:37:05.784Z,99.90
2022-09-10T18:39:12.472Z,99.90
2022-09-10T18:41:22.153Z,99.90
2022-09-10T18:43:27.035Z,99.90
2022-09-10T18:45:31.136Z,99.90
2022-09-10T18:47:44.462Z,99.90
2022-09-10T18:49:49.308Z,99.90
2022-09-10T18:51:56.648Z,99.90
2022-09-10T18:54:02.311Z,99.90
2022-09-10T18:56:08.310Z,99.90
2022-09-10T18:58:12.535Z,99.60
2022-09-10T19:00:17.618Z,99.40
2022-09-10T19:02:21.766Z,99.30
2022-09-10T19:04:28.495Z,99.00
2022-09-10T19:06:35.534Z,98.80
2022-09-10T19:08:48.431Z,98.90
2022-09-10T19:10:54.507Z,98.70
2022-09-10T19:12:58.812Z,98.90
2022-09-10T19:15:03.119Z,98.60
2022-09-10T19:17:08.062Z,98.60
2022-09-10T19:19:18.556Z,98.40
2022-09-10T19:21:23.707Z,98.50
2022-09-10T19:23:28.009Z,98.40
2022-09-10T19:25:33.711Z,98.40
2022-09-10T19:27:37.934Z,98.40
2022-09-10T19:29:43.162Z,98.30
2022-09-10T19:31:49.648Z,98.40
2022-09-10T19:33:56.508Z,98.30
2022-09-10T19:36:03.126Z,98.50
2022-09-10T19:38:27.269Z,98.70
2022-09-10T19:40:33.523Z,98.80
2022-09-10T19:42:37.770Z,99.10
2022-09-10T19:44:43.628Z,99.20
2022-09-10T19:46:47.896Z,99.20
2022-09-10T19:48:53.308Z,99.30
2022-09-10T19:50:57.522Z,99.10
2022-09-10T19:53:01.672Z,99.10
2022-09-10T19:55:06.629Z,99.10
2022-09-10T19:57:12.341Z,99.50
2022-09-10T19:59:17.083Z,99.30
2022-09-10T20:01:23.643Z,99.50
2022-09-10T20:03:27.815Z,99.40
2022-09-10T20:05:34.475Z,99.40
2022-09-10T20:07:38.790Z,99.40
2022-09-10T20:09:43.150Z,99.20
2022-09-10T20:11:47.338Z,99.50
2022-09-10T20:13:56.293Z,99.60
2022-09-10T20:16:02.261Z,99.50
2022-09-10T20:18:06.488Z,99.40
2022-09-10T20:20:11.843Z,99.60
2022-09-10T20:22:16.138Z,99.50
2022-09-10T20:24:20.365Z,99.80
2022-09-10T20:26:26.169Z,99.60
2022-09-10T20:28:30.443Z,99.70
2022-09-10T20:30:36.782Z,99.90
2022-09-10T20:32:41.364Z,99.90
2022-09-10T20:34:45.664Z,99.80
2022-09-10T20:36:51.335Z,99.90
2022-09-10T20:38:56.751Z,99.90
2022-09-10T20:41:01.680Z,99.90
2022-09-10T20:43:05.784Z,99.90
2022-09-10T20:45:11.063Z,99.90
2022-09-10T20:47:17.035Z,99.90
2022-09-10T20:49:21.466Z,99.90
2022-09-10T20:51:25.572Z,99.90
2022-09-10T20:53:29.891Z,99.90
2022-09-10T20:55:34.787Z,99.90
2022-09-10T20:57:39.243Z,99.90
2022-09-10T20:59:44.213Z,99.90
2022-09-10T21:01:50.890Z,99.90
2022-09-10T21:03:59.500Z,99.90
2022-09-10T21:06:03.797Z,99.90
2022-09-10T21:08:08.188Z,99.90
2022-09-10T21:10:12.384Z,99.90
2022-09-10T21:12:16.814Z,99.90
2022-09-10T21:14:21.495Z,99.90
2022-09-10T21:16:28.247Z,99.90
2022-09-10T21:18:33.091Z,99.90
2022-09-10T21:20:38.875Z,99.90
2022-09-10T21:22:43.103Z,99.90
2022-09-10T21:24:47.294Z,99.90
2022-09-10T21:26:53.433Z,99.90
2022-09-10T21:28:58.751Z,99.90
2022-09-10T21:31:04.026Z,99.90
2022-09-10T21:33:08.217Z,99.90
2022-09-10T21:35:12.593Z,99.90
2022-09-10T21:37:18.421Z,99.90
2022-09-10T21:39:22.774Z,99.90
2022-09-10T21:41:31.360Z,99.90
2022-09-10T21:43:36.889Z,99.90
2022-09-10T21:45:41.059Z,99.90
2022-09-10T21:47:45.406Z,99.90
2022-09-10T21:49:49.794Z,99.90
2022-09-10T21:51:53.941Z,99.90
2022-09-10T21:54:00.570Z,99.90
2022-09-10T21:56:05.994Z,99.90
2022-09-10T21:58:10.111Z,99.90
2022-09-10T22:00:16.312Z,99.90
2022-09-10T22:02:23.873Z,99.90
2022-09-10T22:04:28.399Z,99.90
2022-09-10T22:06:41.176Z,99.90
2022-09-10T22:08:47.293Z,99.90
2022-09-10T22:10:53.074Z,99.90
2022-09-10T22:12:57.396Z,99.90
2022-09-10T22:15:01.509Z,99.90
2022-09-10T22:17:07.483Z,99.90
2022-09-10T22:19:15.023Z,99.90
2022-09-10T22:21:19.817Z,99.90
2022-09-10T22:23:23.991Z,99.90
2022-09-10T22:25:28.501Z,99.90
2022-09-10T22:27:34.334Z,99.90
2022-09-10T22:29:38.572Z,99.90
2022-09-10T22:31:42.935Z,99.90
2022-09-10T22:33:50.072Z,99.90
2022-09-10T22:35:55.452Z,99.90
2022-09-10T22:37:59.892Z,99.90
2022-09-10T22:40:04.785Z,99.90
2022-09-10T22:42:09.430Z,99.90
2022-09-10T22:44:15.227Z,99.90
2022-09-10T22:46:20.463Z,99.90
2022-09-10T22:48:24.748Z,99.90
2022-09-10T22:50:28.924Z,99.90
2022-09-10T22:52:34.299Z,99.90
2022-09-10T22:54:38.438Z,99.90
2022-09-10T22:56:44.588Z,99.90
2022-09-10T22:58:51.724Z,99.90
2022-09-10T23:00:57.341Z,99.90
2022-09-10T23:03:02.563Z,99.90
2022-09-10T23:05:07.590Z,99.90
2022-09-10T23:07:12.043Z,99.90
2022-09-10T23:09:17.507Z,99.90
2022-09-10T23:11:23.455Z,99.90
2022-09-10T23:13:27.802Z,99.90
2022-09-10T23:15:32.688Z,99.90
2022-09-10T23:17:38.657Z,99.90
2022-09-10T23:19:42.862Z,99.90
2022-09-10T23:21:49.006Z,99.90
2022-09-10T23:23:55.193Z,99.90
2022-09-10T23:26:05.241Z,99.90
2022-09-10T23:28:09.780Z,99.90
2022-09-10T23:30:16.280Z,99.90
2022-09-10T23:32:20.588Z,99.90
2022-09-10T23:34:26.769Z,99.90
2022-09-10T23:36:33.089Z,99.90
2022-09-10T23:38:37.494Z,99.90
2022-09-10T23:40:41.923Z,99.90
2022-09-10T23:42:46.118Z,99.90
2022-09-10T23:44:50.318Z,99.90
2022-09-10T23:46:55.614Z,99.90
2022-09-10T23:49:00.403Z,99.90
2022-09-10T23:51:07.823Z,99.90
2022-09-10T23:53:12.343Z,99.90
2022-09-10T23:55:17.170Z,99.90
2022-09-10T23:57:21.365Z,99.90
2022-09-10T23:59:25.655Z,99.90
